sensor_id;sensor_type;location;lat;lon;timestamp;temperature;humidity
2100;DHT22;1055;48.854;9.302;2023-04-03T16:39:09;9.70;83.10
2100;DHT22;1055;48.854;9.302;2023-04-03T16:41:35;10.40;73.80
2100;DHT22;1055;48.854;9.302;2023-04-03T16:44:01;10.10;75.60
2100;DHT22;1055;48.854;9.302;2023-04-03T16:46:28;10.80;74.60
2100;DHT22;1055;48.854;9.302;2023-04-03T16:48:53;10.70;69.60
2100;DHT22;1055;48.854;9.302;2023-04-03T16:51:19;10.20;65.80
2100;DHT22;1055;48.854;9.302;2023-04-03T16:53:44;11.00;68.90
2100;DHT22;1055;48.854;9.302;2023-04-03T16:56:10;10.80;67.90
2100;DHT22;1055;48.854;9.302;2023-04-03T16:58:36;10.60;65.00
2100;DHT22;1055;48.854;9.302;2023-04-03T17:01:16;10.60;67.10
2100;DHT22;1055;48.854;9.302;2023-04-03T17:03:42;10.60;69.60
2100;DHT22;1055;48.854;9.302;2023-04-03T17:06:07;9.90;67.20
2100;DHT22;1055;48.854;9.302;2023-04-03T17:08:40;9.80;68.60
2100;DHT22;1055;48.854;9.302;2023-04-03T17:11:05;9.40;68.90
2100;DHT22;1055;48.854;9.302;2023-04-03T17:13:31;8.50;69.00
2100;DHT22;1055;48.854;9.302;2023-04-03T17:15:59;8.90;71.30
2100;DHT22;1055;48.854;9.302;2023-04-03T17:18:26;8.70;70.40
2100;DHT22;1055;48.854;9.302;2023-04-03T17:20:52;8.70;70.90
2100;DHT22;1055;48.854;9.302;2023-04-03T17:23:18;8.50;71.80
2100;DHT22;1055;48.854;9.302;2023-04-03T17:25:43;8.30;73.00
2100;DHT22;1055;48.854;9.302;2023-04-03T17:28:09;7.70;73.70
2100;DHT22;1055;48.854;9.302;2023-04-03T17:30:35;7.90;74.90
2100;DHT22;1055;48.854;9.302;2023-04-03T17:33:00;7.80;74.40
2100;DHT22;1055;48.854;9.302;2023-04-03T17:35:26;7.40;74.60
2100;DHT22;1055;48.854;9.302;2023-04-03T17:37:52;7.40;73.50
2100;DHT22;1055;48.854;9.302;2023-04-03T17:40:18;7.20;74.30
2100;DHT22;1055;48.854;9.302;2023-04-03T17:42:44;7.10;75.60
2100;DHT22;1055;48.854;9.302;2023-04-03T17:45:10;7.30;76.70
2100;DHT22;1055;48.854;9.302;2023-04-03T17:47:35;7.20;76.40
2100;DHT22;1055;48.854;9.302;2023-04-03T17:50:01;7.30;75.90
2100;DHT22;1055;48.854;9.302;2023-04-03T17:52:27;7.20;76.00
2100;DHT22;1055;48.854;9.302;2023-04-03T17:54:53;7.40;75.60
2100;DHT22;1055;48.854;9.302;2023-04-03T17:57:19;7.30;76.30
2100;DHT22;1055;48.854;9.302;2023-04-03T17:59:45;7.10;76.60
2100;DHT22;1055;48.854;9.302;2023-04-03T18:02:11;7.30;76.70
2100;DHT22;1055;48.854;9.302;2023-04-03T18:04:36;7.40;77.10
2100;DHT22;1055;48.854;9.302;2023-04-03T18:07:03;7.10;77.50
2100;DHT22;1055;48.854;9.302;2023-04-03T18:09:34;6.80;76.20
2100;DHT22;1055;48.854;9.302;2023-04-03T18:12:03;7.10;77.70
2100;DHT22;1055;48.854;9.302;2023-04-03T18:14:32;7.10;78.80
2100;DHT22;1055;48.854;9.302;2023-04-03T18:16:58;6.70;78.80
2100;DHT22;1055;48.854;9.302;2023-04-03T18:19:25;7.00;79.20
2100;DHT22;1055;48.854;9.302;2023-04-03T18:22:03;7.00;78.90
2100;DHT22;1055;48.854;9.302;2023-04-03T18:24:31;6.90;79.00
2100;DHT22;1055;48.854;9.302;2023-04-03T18:27:02;6.60;78.40
2100;DHT22;1055;48.854;9.302;2023-04-03T18:29:29;6.70;79.00
2100;DHT22;1055;48.854;9.302;2023-04-03T18:31:57;6.50;79.00
2100;DHT22;1055;48.854;9.302;2023-04-03T18:34:23;6.50;78.50
2100;DHT22;1055;48.854;9.302;2023-04-03T18:36:48;6.40;78.90
2100;DHT22;1055;48.854;9.302;2023-04-03T18:39:14;6.60;79.30
2100;DHT22;1055;48.854;9.302;2023-04-03T18:41:40;6.70;78.90
2100;DHT22;1055;48.854;9.302;2023-04-03T18:44:09;6.70;78.80
2100;DHT22;1055;48.854;9.302;2023-04-03T18:46:36;6.60;79.00
2100;DHT22;1055;48.854;9.302;2023-04-03T18:49:02;6.50;79.10
2100;DHT22;1055;48.854;9.302;2023-04-03T18:51:28;6.40;79.50
2100;DHT22;1055;48.854;9.302;2023-04-03T18:53:54;6.50;79.40
2100;DHT22;1055;48.854;9.302;2023-04-03T18:56:20;6.40;79.50
2100;DHT22;1055;48.854;9.302;2023-04-03T18:58:46;6.30;79.60
2100;DHT22;1055;48.854;9.302;2023-04-03T19:01:13;6.10;80.40
2100;DHT22;1055;48.854;9.302;2023-04-03T19:03:39;6.10;81.10
2100;DHT22;1055;48.854;9.302;2023-04-03T19:06:05;6.10;81.60
2100;DHT22;1055;48.854;9.302;2023-04-03T19:08:31;6.10;81.60
2100;DHT22;1055;48.854;9.302;2023-04-03T19:10:57;6.00;81.70
2100;DHT22;1055;48.854;9.302;2023-04-03T19:13:24;6.00;82.30
2100;DHT22;1055;48.854;9.302;2023-04-03T19:15:51;6.00;82.50
2100;DHT22;1055;48.854;9.302;2023-04-03T19:18:17;5.80;81.70
2100;DHT22;1055;48.854;9.302;2023-04-03T19:20:43;5.90;82.30
2100;DHT22;1055;48.854;9.302;2023-04-03T19:23:08;5.70;81.60
2100;DHT22;1055;48.854;9.302;2023-04-03T19:25:34;5.50;82.00
2100;DHT22;1055;48.854;9.302;2023-04-03T19:28:00;5.50;82.00
2100;DHT22;1055;48.854;9.302;2023-04-03T19:30:26;5.30;81.90
2100;DHT22;1055;48.854;9.302;2023-04-03T19:32:51;5.50;81.20
2100;DHT22;1055;48.854;9.302;2023-04-03T19:35:17;5.20;82.00
2100;DHT22;1055;48.854;9.302;2023-04-03T19:37:43;5.30;82.70
2100;DHT22;1055;48.854;9.302;2023-04-03T19:40:11;4.90;82.10
2100;DHT22;1055;48.854;9.302;2023-04-03T19:42:37;5.00;82.90
2100;DHT22;1055;48.854;9.302;2023-04-03T19:45:08;5.10;82.80
2100;DHT22;1055;48.854;9.302;2023-04-03T19:47:34;4.90;82.20
2100;DHT22;1055;48.854;9.302;2023-04-03T19:50:00;5.00;82.40
2100;DHT22;1055;48.854;9.302;2023-04-03T19:52:25;4.90;82.70
2100;DHT22;1055;48.854;9.302;2023-04-03T19:54:51;4.80;83.40
2100;DHT22;1055;48.854;9.302;2023-04-03T19:57:16;4.80;82.80
2100;DHT22;1055;48.854;9.302;2023-04-03T19:59:42;4.70;83.70
2100;DHT22;1055;48.854;9.302;2023-04-03T20:02:08;4.80;88.90
2100;DHT22;1055;48.854;9.302;2023-04-03T20:04:33;4.80;88.80
2100;DHT22;1055;48.854;9.302;2023-04-03T20:06:59;4.90;86.00
2100;DHT22;1055;48.854;9.302;2023-04-03T20:09:26;5.00;87.10
2100;DHT22;1055;48.854;9.302;2023-04-03T20:11:52;4.80;85.40
2100;DHT22;1055;48.854;9.302;2023-04-03T20:14:18;4.80;86.90
2100;DHT22;1055;48.854;9.302;2023-04-03T20:16:44;4.60;86.60
2100;DHT22;1055;48.854;9.302;2023-04-03T20:19:11;4.70;86.60
2100;DHT22;1055;48.854;9.302;2023-04-03T20:21:38;4.60;87.10
2100;DHT22;1055;48.854;9.302;2023-04-03T20:24:05;4.40;87.10
2100;DHT22;1055;48.854;9.302;2023-04-03T20:26:32;4.20;87.70
2100;DHT22;1055;48.854;9.302;2023-04-03T20:29:02;4.10;88.60
2100;DHT22;1055;48.854;9.302;2023-04-03T20:31:28;4.10;89.30
2100;DHT22;1055;48.854;9.302;2023-04-03T20:33:55;4.00;89.80
2100;DHT22;1055;48.854;9.302;2023-04-03T20:36:21;4.10;90.30
2100;DHT22;1055;48.854;9.302;2023-04-03T20:38:48;4.10;89.30
2100;DHT22;1055;48.854;9.302;2023-04-03T20:41:15;3.90;90.40
2100;DHT22;1055;48.854;9.302;2023-04-03T20:43:41;3.90;90.80
2100;DHT22;1055;48.854;9.302;2023-04-03T20:46:08;4.00;90.80
2100;DHT22;1055;48.854;9.302;2023-04-03T20:48:35;3.90;90.80
2100;DHT22;1055;48.854;9.302;2023-04-03T20:51:12;3.90;91.20
2100;DHT22;1055;48.854;9.302;2023-04-03T20:53:39;3.70;91.20
2100;DHT22;1055;48.854;9.302;2023-04-03T20:56:04;3.40;91.60
2100;DHT22;1055;48.854;9.302;2023-04-03T20:58:34;3.60;91.80
2100;DHT22;1055;48.854;9.302;2023-04-03T21:01:01;3.30;91.80
2100;DHT22;1055;48.854;9.302;2023-04-03T21:03:28;3.60;92.20
2100;DHT22;1055;48.854;9.302;2023-04-03T21:20:33;3.20;92.60
2100;DHT22;1055;48.854;9.302;2023-04-03T21:22:59;3.10;92.90
2100;DHT22;1055;48.854;9.302;2023-04-03T21:25:26;3.10;93.30
2100;DHT22;1055;48.854;9.302;2023-04-03T21:27:52;3.00;93.20
2100;DHT22;1055;48.854;9.302;2023-04-03T21:30:17;3.00;93.60
2100;DHT22;1055;48.854;9.302;2023-04-03T21:32:43;2.80;93.60
2100;DHT22;1055;48.854;9.302;2023-04-03T21:35:08;2.80;93.70
2100;DHT22;1055;48.854;9.302;2023-04-03T21:37:34;2.60;93.90
2100;DHT22;1055;48.854;9.302;2023-04-03T21:39:59;2.60;94.20
2100;DHT22;1055;48.854;9.302;2023-04-03T21:42:25;2.60;95.00
2100;DHT22;1055;48.854;9.302;2023-04-03T21:44:51;2.60;95.10
2100;DHT22;1055;48.854;9.302;2023-04-03T21:47:16;2.60;95.20
2100;DHT22;1055;48.854;9.302;2023-04-03T21:49:43;2.70;95.40
2100;DHT22;1055;48.854;9.302;2023-04-03T21:52:08;2.70;95.60
2100;DHT22;1055;48.854;9.302;2023-04-03T21:54:34;2.40;95.90
2100;DHT22;1055;48.854;9.302;2023-04-03T21:57:00;2.50;96.10
2100;DHT22;1055;48.854;9.302;2023-04-03T21:59:27;2.40;96.00
2100;DHT22;1055;48.854;9.302;2023-04-03T22:01:52;2.40;96.10
2100;DHT22;1055;48.854;9.302;2023-04-03T22:04:18;2.50;96.20
2100;DHT22;1055;48.854;9.302;2023-04-03T22:06:43;2.40;96.20
2100;DHT22;1055;48.854;9.302;2023-04-03T22:09:10;2.40;96.80
2100;DHT22;1055;48.854;9.302;2023-04-03T22:11:35;2.30;96.50
2100;DHT22;1055;48.854;9.302;2023-04-03T22:14:02;2.40;96.40
2100;DHT22;1055;48.854;9.302;2023-04-03T22:16:28;2.30;96.30
2100;DHT22;1055;48.854;9.302;2023-04-03T22:18:53;2.30;96.00
2100;DHT22;1055;48.854;9.302;2023-04-03T22:21:23;2.30;96.70
2100;DHT22;1055;48.854;9.302;2023-04-03T22:23:48;2.30;96.50
2100;DHT22;1055;48.854;9.302;2023-04-03T22:26:15;2.20;96.80
2100;DHT22;1055;48.854;9.302;2023-04-03T22:28:43;2.20;96.60
2100;DHT22;1055;48.854;9.302;2023-04-03T22:31:09;2.00;96.60
2100;DHT22;1055;48.854;9.302;2023-04-03T22:33:39;2.30;96.50
2100;DHT22;1055;48.854;9.302;2023-04-03T22:36:07;2.20;96.50
2100;DHT22;1055;48.854;9.302;2023-04-03T22:38:33;2.20;96.80
2100;DHT22;1055;48.854;9.302;2023-04-03T22:41:04;2.20;97.00
2100;DHT22;1055;48.854;9.302;2023-04-03T22:43:31;2.10;97.20
2100;DHT22;1055;48.854;9.302;2023-04-03T22:45:58;1.90;97.60
2100;DHT22;1055;48.854;9.302;2023-04-03T22:48:24;2.00;98.00
2100;DHT22;1055;48.854;9.302;2023-04-03T22:50:50;1.90;98.30
2100;DHT22;1055;48.854;9.302;2023-04-03T22:53:16;1.90;98.90
2100;DHT22;1055;48.854;9.302;2023-04-03T22:55:42;1.90;99.10
2100;DHT22;1055;48.854;9.302;2023-04-03T22:58:08;1.70;99.20
2100;DHT22;1055;48.854;9.302;2023-04-03T23:00:34;1.70;99.30
2100;DHT22;1055;48.854;9.302;2023-04-03T23:03:00;1.70;99.70
2100;DHT22;1055;48.854;9.302;2023-04-03T23:05:27;1.70;99.80
2100;DHT22;1055;48.854;9.302;2023-04-03T23:07:53;1.70;99.90
2100;DHT22;1055;48.854;9.302;2023-04-03T23:10:19;1.70;99.90
2100;DHT22;1055;48.854;9.302;2023-04-03T23:12:45;1.60;99.90
2100;DHT22;1055;48.854;9.302;2023-04-03T23:15:11;1.80;99.90
2100;DHT22;1055;48.854;9.302;2023-04-03T23:17:39;1.80;99.90
2100;DHT22;1055;48.854;9.302;2023-04-03T23:20:05;1.70;99.90
2100;DHT22;1055;48.854;9.302;2023-04-03T23:22:31;1.60;99.90
2100;DHT22;1055;48.854;9.302;2023-04-03T23:24:56;1.60;99.90
2100;DHT22;1055;48.854;9.302;2023-04-03T23:27:22;1.60;99.90
2100;DHT22;1055;48.854;9.302;2023-04-03T23:29:48;1.70;99.90
2100;DHT22;1055;48.854;9.302;2023-04-03T23:32:13;1.70;99.90
2100;DHT22;1055;48.854;9.302;2023-04-03T23:34:39;1.70;99.90
2100;DHT22;1055;48.854;9.302;2023-04-03T23:37:04;1.60;99.90
2100;DHT22;1055;48.854;9.302;2023-04-03T23:39:32;1.60;99.90
2100;DHT22;1055;48.854;9.302;2023-04-03T23:41:57;1.60;99.90
2100;DHT22;1055;48.854;9.302;2023-04-03T23:44:23;1.60;99.90
2100;DHT22;1055;48.854;9.302;2023-04-03T23:46:48;1.60;99.90
2100;DHT22;1055;48.854;9.302;2023-04-03T23:49:14;1.50;99.90
2100;DHT22;1055;48.854;9.302;2023-04-03T23:51:40;1.60;99.90
2100;DHT22;1055;48.854;9.302;2023-04-03T23:54:06;1.70;99.90
2100;DHT22;1055;48.854;9.302;2023-04-03T23:56:32;1.60;99.90
2100;DHT22;1055;48.854;9.302;2023-04-03T23:58:57;1.60;99.90
